sensor_id;sensor_type;location;lat;lon;timestamp;P1;durP1;ratioP1;P2;durP2;ratioP2
75584;SDS011;64162;53.508;10.476;2024-01-30T00:00:42;8.05;;;3.55;;
75584;SDS011;64162;53.508;10.476;2024-01-30T00:03:08;4.93;;;3.65;;
75584;SDS011;64162;53.508;10.476;2024-01-30T00:05:35;7.25;;;3.85;;
75584;SDS011;64162;53.508;10.476;2024-01-30T00:10:28;6.25;;;3.75;;
75584;SDS011;64162;53.508;10.476;2024-01-30T00:15:21;7.72;;;3.95;;
75584;SDS011;64162;53.508;10.476;2024-01-30T00:17:48;6.43;;;4.00;;
75584;SDS011;64162;53.508;10.476;2024-01-30T00:20:15;8.25;;;3.95;;
75584;SDS011;64162;53.508;10.476;2024-01-30T00:22:42;6.72;;;3.83;;
75584;SDS011;64162;53.508;10.476;2024-01-30T00:27:35;8.50;;;4.03;;
75584;SDS011;64162;53.508;10.476;2024-01-30T00:30:02;6.43;;;4.00;;
75584;SDS011;64162;53.508;10.476;2024-01-30T00:32:29;6.00;;;3.80;;
75584;SDS011;64162;53.508;10.476;2024-01-30T00:37:22;6.75;;;3.80;;
75584;SDS011;64162;53.508;10.476;2024-01-30T00:39:49;8.90;;;4.40;;
75584;SDS011;64162;53.508;10.476;2024-01-30T00:42:16;6.13;;;4.00;;
75584;SDS011;64162;53.508;10.476;2024-01-30T00:44:43;8.65;;;4.30;;
75584;SDS011;64162;53.508;10.476;2024-01-30T00:47:09;5.57;;;4.10;;
75584;SDS011;64162;53.508;10.476;2024-01-30T00:52:02;8.13;;;3.88;;
75584;SDS011;64162;53.508;10.476;2024-01-30T00:54:29;6.18;;;4.00;;
75584;SDS011;64162;53.508;10.476;2024-01-30T00:59:23;8.05;;;3.92;;
75584;SDS011;64162;53.508;10.476;2024-01-30T01:04:16;7.03;;;4.15;;
75584;SDS011;64162;53.508;10.476;2024-01-30T01:06:44;8.02;;;4.18;;
75584;SDS011;64162;53.508;10.476;2024-01-30T01:11:38;7.97;;;4.50;;
75584;SDS011;64162;53.508;10.476;2024-01-30T01:16:31;7.25;;;4.03;;
75584;SDS011;64162;53.508;10.476;2024-01-30T01:18:59;10.68;;;4.68;;
75584;SDS011;64162;53.508;10.476;2024-01-30T01:21:26;7.05;;;4.40;;
75584;SDS011;64162;53.508;10.476;2024-01-30T01:23:53;7.10;;;3.80;;
75584;SDS011;64162;53.508;10.476;2024-01-30T01:26:20;11.70;;;4.68;;
75584;SDS011;64162;53.508;10.476;2024-01-30T01:28:47;7.40;;;4.18;;
75584;SDS011;64162;53.508;10.476;2024-01-30T01:31:14;6.90;;;4.25;;
75584;SDS011;64162;53.508;10.476;2024-01-30T01:36:07;7.20;;;4.18;;
75584;SDS011;64162;53.508;10.476;2024-01-30T01:38:34;7.50;;;4.38;;
75584;SDS011;64162;53.508;10.476;2024-01-30T01:41:01;5.78;;;3.90;;
75584;SDS011;64162;53.508;10.476;2024-01-30T01:45:54;7.25;;;4.15;;
75584;SDS011;64162;53.508;10.476;2024-01-30T01:50:47;7.93;;;4.25;;
75584;SDS011;64162;53.508;10.476;2024-01-30T01:53:15;7.28;;;4.25;;
75584;SDS011;64162;53.508;10.476;2024-01-30T01:55:42;8.60;;;4.60;;
75584;SDS011;64162;53.508;10.476;2024-01-30T02:00:35;7.10;;;4.00;;
75584;SDS011;64162;53.508;10.476;2024-01-30T02:03:05;10.50;;;4.47;;
75584;SDS011;64162;53.508;10.476;2024-01-30T02:05:34;7.85;;;4.47;;
75584;SDS011;64162;53.508;10.476;2024-01-30T02:08:01;7.88;;;4.22;;
75584;SDS011;64162;53.508;10.476;2024-01-30T02:12:54;9.23;;;4.75;;
75584;SDS011;64162;53.508;10.476;2024-01-30T02:15:21;8.13;;;4.03;;
75584;SDS011;64162;53.508;10.476;2024-01-30T02:17:47;8.00;;;4.78;;
75584;SDS011;64162;53.508;10.476;2024-01-30T02:22:41;7.78;;;4.20;;
75584;SDS011;64162;53.508;10.476;2024-01-30T02:25:09;8.05;;;4.43;;
75584;SDS011;64162;53.508;10.476;2024-01-30T02:30:02;8.63;;;4.22;;
75584;SDS011;64162;53.508;10.476;2024-01-30T02:32:29;8.75;;;4.63;;
75584;SDS011;64162;53.508;10.476;2024-01-30T02:34:55;8.50;;;4.65;;
75584;SDS011;64162;53.508;10.476;2024-01-30T02:37:22;8.77;;;5.10;;
75584;SDS011;64162;53.508;10.476;2024-01-30T02:39:49;9.75;;;5.38;;
75584;SDS011;64162;53.508;10.476;2024-01-30T02:44:42;10.05;;;4.53;;
75584;SDS011;64162;53.508;10.476;2024-01-30T02:47:08;9.88;;;4.97;;
75584;SDS011;64162;53.508;10.476;2024-01-30T02:49:35;10.38;;;5.05;;
75584;SDS011;64162;53.508;10.476;2024-01-30T02:52:02;9.75;;;4.70;;
75584;SDS011;64162;53.508;10.476;2024-01-30T02:54:29;8.63;;;4.78;;
75584;SDS011;64162;53.508;10.476;2024-01-30T02:56:57;7.90;;;5.03;;
75584;SDS011;64162;53.508;10.476;2024-01-30T02:59:23;9.38;;;4.90;;
75584;SDS011;64162;53.508;10.476;2024-01-30T03:01:50;6.90;;;4.70;;
75584;SDS011;64162;53.508;10.476;2024-01-30T03:04:17;7.57;;;4.35;;
75584;SDS011;64162;53.508;10.476;2024-01-30T03:09:15;11.38;;;4.93;;
75584;SDS011;64162;53.508;10.476;2024-01-30T03:11:43;7.28;;;4.07;;
75584;SDS011;64162;53.508;10.476;2024-01-30T03:14:09;9.48;;;4.95;;
75584;SDS011;64162;53.508;10.476;2024-01-30T03:16:39;10.00;;;5.20;;
75584;SDS011;64162;53.508;10.476;2024-01-30T03:19:06;8.05;;;4.45;;
75584;SDS011;64162;53.508;10.476;2024-01-30T03:21:35;8.73;;;4.95;;
75584;SDS011;64162;53.508;10.476;2024-01-30T03:24:01;7.75;;;4.50;;
75584;SDS011;64162;53.508;10.476;2024-01-30T03:26:28;7.38;;;4.22;;
75584;SDS011;64162;53.508;10.476;2024-01-30T03:28:55;9.60;;;5.05;;
75584;SDS011;64162;53.508;10.476;2024-01-30T03:31:21;9.73;;;5.50;;
75584;SDS011;64162;53.508;10.476;2024-01-30T03:36:15;10.55;;;4.93;;
75584;SDS011;64162;53.508;10.476;2024-01-30T03:38:42;9.93;;;5.03;;
75584;SDS011;64162;53.508;10.476;2024-01-30T03:43:36;10.30;;;5.43;;
75584;SDS011;64162;53.508;10.476;2024-01-30T03:48:30;9.07;;;5.05;;
75584;SDS011;64162;53.508;10.476;2024-01-30T03:53:23;8.27;;;4.30;;
75584;SDS011;64162;53.508;10.476;2024-01-30T03:55:50;10.10;;;5.68;;
75584;SDS011;64162;53.508;10.476;2024-01-30T03:58:16;9.65;;;5.85;;
75584;SDS011;64162;53.508;10.476;2024-01-30T04:03:10;9.05;;;4.90;;
75584;SDS011;64162;53.508;10.476;2024-01-30T04:08:03;7.95;;;4.40;;
75584;SDS011;64162;53.508;10.476;2024-01-30T04:10:30;9.10;;;5.45;;
75584;SDS011;64162;53.508;10.476;2024-01-30T04:12:56;11.05;;;4.85;;
75584;SDS011;64162;53.508;10.476;2024-01-30T04:15:23;11.15;;;5.50;;
75584;SDS011;64162;53.508;10.476;2024-01-30T04:20:16;13.82;;;5.85;;
75584;SDS011;64162;53.508;10.476;2024-01-30T04:22:43;8.45;;;5.25;;
75584;SDS011;64162;53.508;10.476;2024-01-30T04:25:11;11.60;;;6.05;;
75584;SDS011;64162;53.508;10.476;2024-01-30T04:27:39;9.23;;;5.65;;
75584;SDS011;64162;53.508;10.476;2024-01-30T04:32:32;10.07;;;5.20;;
75584;SDS011;64162;53.508;10.476;2024-01-30T04:37:26;11.50;;;5.32;;
75584;SDS011;64162;53.508;10.476;2024-01-30T04:39:52;9.40;;;5.72;;
75584;SDS011;64162;53.508;10.476;2024-01-30T04:44:45;10.25;;;5.40;;
75584;SDS011;64162;53.508;10.476;2024-01-30T04:47:12;11.00;;;5.60;;
75584;SDS011;64162;53.508;10.476;2024-01-30T04:49:39;10.65;;;5.93;;
75584;SDS011;64162;53.508;10.476;2024-01-30T04:52:08;10.15;;;5.93;;
75584;SDS011;64162;53.508;10.476;2024-01-30T04:54:35;10.60;;;6.55;;
75584;SDS011;64162;53.508;10.476;2024-01-30T04:57:02;12.15;;;5.95;;
75584;SDS011;64162;53.508;10.476;2024-01-30T04:59:29;9.40;;;5.45;;
75584;SDS011;64162;53.508;10.476;2024-01-30T05:01:55;10.60;;;5.28;;
75584;SDS011;64162;53.508;10.476;2024-01-30T05:06:49;9.43;;;5.13;;
75584;SDS011;64162;53.508;10.476;2024-01-30T05:09:16;10.82;;;5.80;;
75584;SDS011;64162;53.508;10.476;2024-01-30T05:11:42;9.80;;;6.38;;
75584;SDS011;64162;53.508;10.476;2024-01-30T05:16:37;9.63;;;5.57;;
75584;SDS011;64162;53.508;10.476;2024-01-30T05:19:03;10.40;;;5.93;;
75584;SDS011;64162;53.508;10.476;2024-01-30T05:23:56;9.48;;;5.47;;
75584;SDS011;64162;53.508;10.476;2024-01-30T05:26:23;11.95;;;6.10;;
75584;SDS011;64162;53.508;10.476;2024-01-30T05:28:50;10.93;;;5.60;;
75584;SDS011;64162;53.508;10.476;2024-01-30T05:31:16;11.95;;;5.97;;
75584;SDS011;64162;53.508;10.476;2024-01-30T05:36:11;11.75;;;5.82;;
75584;SDS011;64162;53.508;10.476;2024-01-30T05:38:39;10.48;;;5.47;;
75584;SDS011;64162;53.508;10.476;2024-01-30T05:43:32;10.38;;;5.32;;
75584;SDS011;64162;53.508;10.476;2024-01-30T05:45:59;12.57;;;6.80;;
75584;SDS011;64162;53.508;10.476;2024-01-30T05:48:26;10.88;;;6.90;;
75584;SDS011;64162;53.508;10.476;2024-01-30T05:50:52;10.48;;;6.35;;
75584;SDS011;64162;53.508;10.476;2024-01-30T05:53:19;10.50;;;6.18;;
75584;SDS011;64162;53.508;10.476;2024-01-30T05:58:12;11.15;;;5.85;;
75584;SDS011;64162;53.508;10.476;2024-01-30T06:00:39;9.82;;;5.97;;
75584;SDS011;64162;53.508;10.476;2024-01-30T06:03:06;10.18;;;5.97;;
75584;SDS011;64162;53.508;10.476;2024-01-30T06:05:32;13.93;;;6.18;;
75584;SDS011;64162;53.508;10.476;2024-01-30T06:10:25;10.35;;;5.78;;
75584;SDS011;64162;53.508;10.476;2024-01-30T06:12:52;13.85;;;6.72;;
75584;SDS011;64162;53.508;10.476;2024-01-30T06:15:19;14.38;;;6.95;;
75584;SDS011;64162;53.508;10.476;2024-01-30T06:17:45;13.35;;;6.47;;
75584;SDS011;64162;53.508;10.476;2024-01-30T06:20:12;11.65;;;6.00;;
75584;SDS011;64162;53.508;10.476;2024-01-30T06:22:38;10.75;;;6.20;;
75584;SDS011;64162;53.508;10.476;2024-01-30T06:25:05;12.60;;;7.07;;
75584;SDS011;64162;53.508;10.476;2024-01-30T06:27:32;11.48;;;6.38;;
75584;SDS011;64162;53.508;10.476;2024-01-30T06:29:58;14.00;;;7.25;;
75584;SDS011;64162;53.508;10.476;2024-01-30T06:34:51;13.98;;;6.57;;
75584;SDS011;64162;53.508;10.476;2024-01-30T06:37:18;14.52;;;6.38;;
75584;SDS011;64162;53.508;10.476;2024-01-30T06:39:45;13.98;;;7.20;;
75584;SDS011;64162;53.508;10.476;2024-01-30T06:42:11;12.00;;;6.78;;
75584;SDS011;64162;53.508;10.476;2024-01-30T06:44:38;11.85;;;7.35;;
75584;SDS011;64162;53.508;10.476;2024-01-30T06:47:04;13.15;;;6.38;;
75584;SDS011;64162;53.508;10.476;2024-01-30T06:49:31;12.57;;;6.45;;
75584;SDS011;64162;53.508;10.476;2024-01-30T06:51:58;12.20;;;6.85;;
75584;SDS011;64162;53.508;10.476;2024-01-30T06:56:51;12.32;;;6.72;;
75584;SDS011;64162;53.508;10.476;2024-01-30T07:01:44;10.82;;;5.95;;
75584;SDS011;64162;53.508;10.476;2024-01-30T07:04:10;13.30;;;6.75;;
75584;SDS011;64162;53.508;10.476;2024-01-30T07:06:37;11.23;;;6.55;;
75584;SDS011;64162;53.508;10.476;2024-01-30T07:11:31;11.02;;;5.72;;
75584;SDS011;64162;53.508;10.476;2024-01-30T07:13:58;11.75;;;6.50;;
75584;SDS011;64162;53.508;10.476;2024-01-30T07:16:25;12.05;;;6.72;;
75584;SDS011;64162;53.508;10.476;2024-01-30T07:18:51;14.73;;;7.70;;
75584;SDS011;64162;53.508;10.476;2024-01-30T07:21:18;15.85;;;7.63;;
75584;SDS011;64162;53.508;10.476;2024-01-30T07:23:48;15.10;;;7.28;;
75584;SDS011;64162;53.508;10.476;2024-01-30T07:26:15;13.88;;;7.35;;
75584;SDS011;64162;53.508;10.476;2024-01-30T07:28:42;13.52;;;7.28;;
75584;SDS011;64162;53.508;10.476;2024-01-30T07:31:10;15.23;;;7.55;;
75584;SDS011;64162;53.508;10.476;2024-01-30T07:36:03;13.13;;;7.03;;
75584;SDS011;64162;53.508;10.476;2024-01-30T07:38:33;13.40;;;6.95;;
75584;SDS011;64162;53.508;10.476;2024-01-30T07:40:59;14.02;;;7.47;;
75584;SDS011;64162;53.508;10.476;2024-01-30T07:45:52;12.18;;;7.28;;
75584;SDS011;64162;53.508;10.476;2024-01-30T07:48:19;12.38;;;6.80;;
75584;SDS011;64162;53.508;10.476;2024-01-30T07:50:46;14.00;;;7.95;;
75584;SDS011;64162;53.508;10.476;2024-01-30T07:53:12;12.38;;;7.00;;
75584;SDS011;64162;53.508;10.476;2024-01-30T07:58:05;13.25;;;7.45;;
75584;SDS011;64162;53.508;10.476;2024-01-30T08:00:32;13.48;;;7.13;;
75584;SDS011;64162;53.508;10.476;2024-01-30T08:05:26;12.38;;;6.40;;
75584;SDS011;64162;53.508;10.476;2024-01-30T08:10:19;12.55;;;6.43;;
75584;SDS011;64162;53.508;10.476;2024-01-30T08:12:46;13.27;;;7.10;;
75584;SDS011;64162;53.508;10.476;2024-01-30T08:15:13;13.02;;;6.75;;
75584;SDS011;64162;53.508;10.476;2024-01-30T08:17:40;12.20;;;6.97;;
75584;SDS011;64162;53.508;10.476;2024-01-30T08:20:07;15.23;;;7.15;;
75584;SDS011;64162;53.508;10.476;2024-01-30T08:22:34;16.70;;;7.30;;
75584;SDS011;64162;53.508;10.476;2024-01-30T08:27:27;11.02;;;6.97;;
75584;SDS011;64162;53.508;10.476;2024-01-30T08:29:54;12.93;;;7.40;;
75584;SDS011;64162;53.508;10.476;2024-01-30T08:32:21;14.20;;;7.50;;
75584;SDS011;64162;53.508;10.476;2024-01-30T08:37:14;12.88;;;6.68;;
75584;SDS011;64162;53.508;10.476;2024-01-30T08:39:43;15.77;;;6.93;;
75584;SDS011;64162;53.508;10.476;2024-01-30T08:42:10;14.55;;;7.68;;
75584;SDS011;64162;53.508;10.476;2024-01-30T08:44:36;13.27;;;7.53;;
75584;SDS011;64162;53.508;10.476;2024-01-30T08:47:03;17.30;;;8.02;;
75584;SDS011;64162;53.508;10.476;2024-01-30T08:49:30;13.93;;;7.65;;
75584;SDS011;64162;53.508;10.476;2024-01-30T08:51:57;13.02;;;7.53;;
75584;SDS011;64162;53.508;10.476;2024-01-30T08:54:24;14.25;;;7.38;;
75584;SDS011;64162;53.508;10.476;2024-01-30T08:59:19;15.30;;;7.45;;
75584;SDS011;64162;53.508;10.476;2024-01-30T09:04:15;12.32;;;6.57;;
75584;SDS011;64162;53.508;10.476;2024-01-30T09:09:08;13.68;;;7.90;;
75584;SDS011;64162;53.508;10.476;2024-01-30T09:11:35;15.35;;;7.95;;
75584;SDS011;64162;53.508;10.476;2024-01-30T09:14:02;14.52;;;7.45;;
75584;SDS011;64162;53.508;10.476;2024-01-30T09:16:28;15.10;;;7.70;;
75584;SDS011;64162;53.508;10.476;2024-01-30T09:18:55;14.20;;;8.13;;
75584;SDS011;64162;53.508;10.476;2024-01-30T09:23:48;11.05;;;7.00;;
75584;SDS011;64162;53.508;10.476;2024-01-30T09:26:15;11.95;;;6.70;;
75584;SDS011;64162;53.508;10.476;2024-01-30T09:31:12;16.90;;;7.43;;
75584;SDS011;64162;53.508;10.476;2024-01-30T09:33:38;14.63;;;7.88;;
75584;SDS011;64162;53.508;10.476;2024-01-30T09:36:05;13.73;;;7.07;;
75584;SDS011;64162;53.508;10.476;2024-01-30T09:38:32;13.88;;;8.00;;
75584;SDS011;64162;53.508;10.476;2024-01-30T09:43:31;12.85;;;6.63;;
75584;SDS011;64162;53.508;10.476;2024-01-30T09:46:01;16.70;;;7.30;;
75584;SDS011;64162;53.508;10.476;2024-01-30T09:48:30;11.93;;;7.20;;
75584;SDS011;64162;53.508;10.476;2024-01-30T09:50:57;9.63;;;6.32;;
75584;SDS011;64162;53.508;10.476;2024-01-30T09:53:24;10.93;;;5.93;;
75584;SDS011;64162;53.508;10.476;2024-01-30T09:55:51;13.48;;;6.60;;
75584;SDS011;64162;53.508;10.476;2024-01-30T10:00:45;15.45;;;7.07;;
75584;SDS011;64162;53.508;10.476;2024-01-30T10:03:11;12.13;;;6.43;;
75584;SDS011;64162;53.508;10.476;2024-01-30T10:05:41;10.75;;;5.72;;
75584;SDS011;64162;53.508;10.476;2024-01-30T10:08:09;11.65;;;6.22;;
75584;SDS011;64162;53.508;10.476;2024-01-30T10:10:35;10.18;;;5.82;;
75584;SDS011;64162;53.508;10.476;2024-01-30T10:13:02;12.77;;;6.47;;
75584;SDS011;64162;53.508;10.476;2024-01-30T10:15:29;13.30;;;6.95;;
75584;SDS011;64162;53.508;10.476;2024-01-30T10:20:24;13.45;;;6.28;;
75584;SDS011;64162;53.508;10.476;2024-01-30T10:22:51;11.32;;;6.68;;
75584;SDS011;64162;53.508;10.476;2024-01-30T10:25:18;10.75;;;6.28;;
75584;SDS011;64162;53.508;10.476;2024-01-30T10:27:46;12.20;;;7.13;;
75584;SDS011;64162;53.508;10.476;2024-01-30T10:30:12;12.60;;;6.85;;
75584;SDS011;64162;53.508;10.476;2024-01-30T10:32:40;11.73;;;6.72;;
75584;SDS011;64162;53.508;10.476;2024-01-30T10:37:33;12.45;;;6.32;;
75584;SDS011;64162;53.508;10.476;2024-01-30T10:40:01;11.88;;;5.95;;
75584;SDS011;64162;53.508;10.476;2024-01-30T10:42:32;10.48;;;5.95;;
75584;SDS011;64162;53.508;10.476;2024-01-30T10:45:08;11.57;;;6.93;;
75584;SDS011;64162;53.508;10.476;2024-01-30T10:47:40;11.23;;;6.55;;
75584;SDS011;64162;53.508;10.476;2024-01-30T10:50:10;11.98;;;5.97;;
75584;SDS011;64162;53.508;10.476;2024-01-30T10:52:37;13.00;;;6.45;;
75584;SDS011;64162;53.508;10.476;2024-01-30T10:55:04;12.52;;;6.28;;
75584;SDS011;64162;53.508;10.476;2024-01-30T10:57:34;11.40;;;6.32;;
75584;SDS011;64162;53.508;10.476;2024-01-30T11:00:05;14.07;;;6.68;;
75584;SDS011;64162;53.508;10.476;2024-01-30T11:02:40;13.15;;;6.47;;
75584;SDS011;64162;53.508;10.476;2024-01-30T11:05:09;11.75;;;6.32;;
75584;SDS011;64162;53.508;10.476;2024-01-30T11:07:38;8.18;;;5.57;;
75584;SDS011;64162;53.508;10.476;2024-01-30T11:10:06;15.35;;;7.18;;
75584;SDS011;64162;53.508;10.476;2024-01-30T11:12:38;12.02;;;6.40;;
75584;SDS011;64162;53.508;10.476;2024-01-30T11:15:11;9.15;;;5.68;;
75584;SDS011;64162;53.508;10.476;2024-01-30T11:22:44;10.40;;;5.97;;
75584;SDS011;64162;53.508;10.476;2024-01-30T11:25:16;10.90;;;6.00;;
75584;SDS011;64162;53.508;10.476;2024-01-30T11:27:44;12.18;;;6.57;;
75584;SDS011;64162;53.508;10.476;2024-01-30T11:30:30;15.43;;;6.40;;
75584;SDS011;64162;53.508;10.476;2024-01-30T11:35:31;9.95;;;6.07;;
75584;SDS011;64162;53.508;10.476;2024-01-30T11:37:59;11.07;;;6.38;;
75584;SDS011;64162;53.508;10.476;2024-01-30T11:40:27;10.98;;;5.60;;
75584;SDS011;64162;53.508;10.476;2024-01-30T11:42:55;11.18;;;6.22;;
75584;SDS011;64162;53.508;10.476;2024-01-30T11:45:22;11.32;;;5.57;;
75584;SDS011;64162;53.508;10.476;2024-01-30T11:47:49;9.95;;;6.05;;
75584;SDS011;64162;53.508;10.476;2024-01-30T11:50:16;10.15;;;5.70;;
75584;SDS011;64162;53.508;10.476;2024-01-30T11:52:43;11.55;;;6.20;;
75584;SDS011;64162;53.508;10.476;2024-01-30T11:55:10;10.10;;;5.90;;
75584;SDS011;64162;53.508;10.476;2024-01-30T11:57:38;10.20;;;5.22;;
75584;SDS011;64162;53.508;10.476;2024-01-30T12:00:05;11.95;;;5.80;;
75584;SDS011;64162;53.508;10.476;2024-01-30T12:02:37;10.80;;;6.15;;
75584;SDS011;64162;53.508;10.476;2024-01-30T12:05:06;8.55;;;5.03;;
75584;SDS011;64162;53.508;10.476;2024-01-30T12:07:33;10.35;;;6.18;;
75584;SDS011;64162;53.508;10.476;2024-01-30T12:10:00;10.15;;;5.35;;
75584;SDS011;64162;53.508;10.476;2024-01-30T12:12:27;9.82;;;5.03;;
75584;SDS011;64162;53.508;10.476;2024-01-30T12:14:55;9.77;;;5.53;;
75584;SDS011;64162;53.508;10.476;2024-01-30T12:17:23;8.45;;;5.28;;
75584;SDS011;64162;53.508;10.476;2024-01-30T12:20:02;7.97;;;5.43;;
75584;SDS011;64162;53.508;10.476;2024-01-30T12:22:33;10.45;;;5.63;;
75584;SDS011;64162;53.508;10.476;2024-01-30T12:25:04;9.27;;;5.70;;
75584;SDS011;64162;53.508;10.476;2024-01-30T12:27:31;12.60;;;5.35;;
75584;SDS011;64162;53.508;10.476;2024-01-30T12:29:58;8.15;;;5.15;;
75584;SDS011;64162;53.508;10.476;2024-01-30T12:32:24;10.18;;;5.57;;
75584;SDS011;64162;53.508;10.476;2024-01-30T12:34:54;10.82;;;5.22;;
75584;SDS011;64162;53.508;10.476;2024-01-30T12:37:22;8.13;;;5.13;;
75584;SDS011;64162;53.508;10.476;2024-01-30T12:39:51;8.77;;;5.20;;
75584;SDS011;64162;53.508;10.476;2024-01-30T12:42:20;9.50;;;5.43;;
75584;SDS011;64162;53.508;10.476;2024-01-30T12:44:49;11.55;;;5.80;;
75584;SDS011;64162;53.508;10.476;2024-01-30T12:47:16;9.10;;;5.45;;
75584;SDS011;64162;53.508;10.476;2024-01-30T12:49:43;10.50;;;5.63;;
75584;SDS011;64162;53.508;10.476;2024-01-30T12:52:11;9.23;;;5.88;;
75584;SDS011;64162;53.508;10.476;2024-01-30T12:54:38;10.63;;;5.90;;
75584;SDS011;64162;53.508;10.476;2024-01-30T12:57:05;8.70;;;5.20;;
75584;SDS011;64162;53.508;10.476;2024-01-30T12:59:32;12.75;;;5.75;;
75584;SDS011;64162;53.508;10.476;2024-01-30T13:02:00;10.93;;;5.85;;
75584;SDS011;64162;53.508;10.476;2024-01-30T13:04:27;10.45;;;5.20;;
75584;SDS011;64162;53.508;10.476;2024-01-30T13:06:55;10.00;;;5.50;;
75584;SDS011;64162;53.508;10.476;2024-01-30T13:09:21;12.88;;;5.80;;
75584;SDS011;64162;53.508;10.476;2024-01-30T13:11:49;9.60;;;5.60;;
75584;SDS011;64162;53.508;10.476;2024-01-30T13:14:16;7.57;;;4.75;;
75584;SDS011;64162;53.508;10.476;2024-01-30T13:16:43;8.45;;;4.95;;
75584;SDS011;64162;53.508;10.476;2024-01-30T13:19:11;9.95;;;5.38;;
75584;SDS011;64162;53.508;10.476;2024-01-30T13:21:37;8.73;;;5.32;;
75584;SDS011;64162;53.508;10.476;2024-01-30T13:24:04;9.00;;;5.25;;
75584;SDS011;64162;53.508;10.476;2024-01-30T13:26:32;11.73;;;5.43;;
75584;SDS011;64162;53.508;10.476;2024-01-30T13:28:59;9.65;;;5.00;;
75584;SDS011;64162;53.508;10.476;2024-01-30T13:31:25;9.75;;;4.95;;
75584;SDS011;64162;53.508;10.476;2024-01-30T13:33:54;9.48;;;5.35;;
75584;SDS011;64162;53.508;10.476;2024-01-30T13:36:21;9.50;;;5.20;;
75584;SDS011;64162;53.508;10.476;2024-01-30T13:38:48;9.25;;;5.10;;
75584;SDS011;64162;53.508;10.476;2024-01-30T13:41:15;9.60;;;5.15;;
75584;SDS011;64162;53.508;10.476;2024-01-30T13:43:43;8.13;;;5.00;;
75584;SDS011;64162;53.508;10.476;2024-01-30T13:46:10;7.90;;;4.72;;
75584;SDS011;64162;53.508;10.476;2024-01-30T13:48:37;9.60;;;5.13;;
75584;SDS011;64162;53.508;10.476;2024-01-30T13:51:04;8.68;;;4.85;;
75584;SDS011;64162;53.508;10.476;2024-01-30T13:53:30;10.20;;;5.30;;
75584;SDS011;64162;53.508;10.476;2024-01-30T13:55:57;8.82;;;4.88;;
75584;SDS011;64162;53.508;10.476;2024-01-30T13:58:24;10.20;;;4.75;;
75584;SDS011;64162;53.508;10.476;2024-01-30T14:00:50;10.82;;;5.10;;
75584;SDS011;64162;53.508;10.476;2024-01-30T14:03:17;11.40;;;5.10;;
75584;SDS011;64162;53.508;10.476;2024-01-30T14:05:43;9.65;;;4.78;;
75584;SDS011;64162;53.508;10.476;2024-01-30T14:08:10;10.88;;;5.45;;
75584;SDS011;64162;53.508;10.476;2024-01-30T14:10:37;10.35;;;5.22;;
75584;SDS011;64162;53.508;10.476;2024-01-30T14:13:04;8.48;;;4.93;;
75584;SDS011;64162;53.508;10.476;2024-01-30T14:15:30;10.95;;;5.45;;
75584;SDS011;64162;53.508;10.476;2024-01-30T14:17:57;9.93;;;5.80;;
75584;SDS011;64162;53.508;10.476;2024-01-30T14:20:23;10.70;;;5.70;;
75584;SDS011;64162;53.508;10.476;2024-01-30T14:22:51;13.40;;;5.80;;
75584;SDS011;64162;53.508;10.476;2024-01-30T14:25:19;9.52;;;4.78;;
75584;SDS011;64162;53.508;10.476;2024-01-30T14:27:46;9.93;;;5.20;;
75584;SDS011;64162;53.508;10.476;2024-01-30T14:30:13;9.38;;;4.90;;
75584;SDS011;64162;53.508;10.476;2024-01-30T14:32:40;10.75;;;5.30;;
75584;SDS011;64162;53.508;10.476;2024-01-30T14:35:08;10.93;;;5.57;;
75584;SDS011;64162;53.508;10.476;2024-01-30T14:37:35;9.85;;;5.55;;
75584;SDS011;64162;53.508;10.476;2024-01-30T14:40:02;9.52;;;5.75;;
75584;SDS011;64162;53.508;10.476;2024-01-30T14:42:29;9.35;;;5.90;;
75584;SDS011;64162;53.508;10.476;2024-01-30T14:44:58;10.30;;;5.15;;
75584;SDS011;64162;53.508;10.476;2024-01-30T14:47:25;9.68;;;5.35;;
75584;SDS011;64162;53.508;10.476;2024-01-30T14:49:54;13.77;;;5.22;;
75584;SDS011;64162;53.508;10.476;2024-01-30T14:52:21;9.10;;;5.43;;
75584;SDS011;64162;53.508;10.476;2024-01-30T14:54:48;12.10;;;4.97;;
75584;SDS011;64162;53.508;10.476;2024-01-30T14:57:14;9.68;;;5.03;;
75584;SDS011;64162;53.508;10.476;2024-01-30T14:59:42;9.70;;;5.50;;
75584;SDS011;64162;53.508;10.476;2024-01-30T15:02:08;12.85;;;5.88;;
75584;SDS011;64162;53.508;10.476;2024-01-30T15:04:35;9.48;;;4.90;;
75584;SDS011;64162;53.508;10.476;2024-01-30T15:07:02;9.73;;;5.25;;
75584;SDS011;64162;53.508;10.476;2024-01-30T15:09:29;9.10;;;5.22;;
75584;SDS011;64162;53.508;10.476;2024-01-30T15:11:56;10.13;;;5.18;;
75584;SDS011;64162;53.508;10.476;2024-01-30T15:14:23;9.65;;;5.25;;
75584;SDS011;64162;53.508;10.476;2024-01-30T15:16:50;10.65;;;5.22;;
75584;SDS011;64162;53.508;10.476;2024-01-30T15:19:17;9.43;;;4.88;;
75584;SDS011;64162;53.508;10.476;2024-01-30T15:21:44;12.18;;;5.35;;
75584;SDS011;64162;53.508;10.476;2024-01-30T15:24:11;9.68;;;5.03;;
75584;SDS011;64162;53.508;10.476;2024-01-30T15:26:41;9.80;;;5.68;;
75584;SDS011;64162;53.508;10.476;2024-01-30T15:29:08;12.60;;;5.65;;
75584;SDS011;64162;53.508;10.476;2024-01-30T15:31:34;15.00;;;6.28;;
75584;SDS011;64162;53.508;10.476;2024-01-30T15:34:01;11.88;;;6.05;;
75584;SDS011;64162;53.508;10.476;2024-01-30T15:36:28;10.63;;;5.03;;
75584;SDS011;64162;53.508;10.476;2024-01-30T15:38:56;10.23;;;5.68;;
75584;SDS011;64162;53.508;10.476;2024-01-30T15:41:23;9.85;;;6.00;;
75584;SDS011;64162;53.508;10.476;2024-01-30T15:43:49;11.45;;;5.18;;
75584;SDS011;64162;53.508;10.476;2024-01-30T15:46:17;11.10;;;5.22;;
75584;SDS011;64162;53.508;10.476;2024-01-30T15:48:44;13.02;;;5.47;;
75584;SDS011;64162;53.508;10.476;2024-01-30T15:51:10;9.38;;;4.97;;
75584;SDS011;64162;53.508;10.476;2024-01-30T15:53:37;8.95;;;5.25;;
75584;SDS011;64162;53.508;10.476;2024-01-30T15:56:04;13.68;;;4.93;;
75584;SDS011;64162;53.508;10.476;2024-01-30T15:58:31;10.52;;;5.00;;
75584;SDS011;64162;53.508;10.476;2024-01-30T16:00:57;11.48;;;4.93;;
75584;SDS011;64162;53.508;10.476;2024-01-30T16:03:24;9.80;;;5.50;;
75584;SDS011;64162;53.508;10.476;2024-01-30T16:05:51;9.10;;;5.22;;
75584;SDS011;64162;53.508;10.476;2024-01-30T16:08:18;11.95;;;5.15;;
75584;SDS011;64162;53.508;10.476;2024-01-30T16:10:45;9.52;;;5.22;;
75584;SDS011;64162;53.508;10.476;2024-01-30T16:13:11;12.30;;;5.70;;
75584;SDS011;64162;53.508;10.476;2024-01-30T16:15:38;11.05;;;5.35;;
75584;SDS011;64162;53.508;10.476;2024-01-30T16:18:06;12.40;;;5.88;;
75584;SDS011;64162;53.508;10.476;2024-01-30T16:20:32;12.32;;;6.65;;
75584;SDS011;64162;53.508;10.476;2024-01-30T16:22:59;13.32;;;5.95;;
75584;SDS011;64162;53.508;10.476;2024-01-30T16:25:25;13.70;;;6.50;;
75584;SDS011;64162;53.508;10.476;2024-01-30T16:27:52;15.23;;;6.32;;
75584;SDS011;64162;53.508;10.476;2024-01-30T16:30:19;12.45;;;6.32;;
75584;SDS011;64162;53.508;10.476;2024-01-30T16:32:45;14.30;;;7.65;;
75584;SDS011;64162;53.508;10.476;2024-01-30T16:35:12;11.93;;;6.50;;
75584;SDS011;64162;53.508;10.476;2024-01-30T16:37:39;14.10;;;6.90;;
75584;SDS011;64162;53.508;10.476;2024-01-30T16:40:06;11.18;;;5.85;;
75584;SDS011;64162;53.508;10.476;2024-01-30T16:42:35;11.75;;;6.00;;
75584;SDS011;64162;53.508;10.476;2024-01-30T16:45:01;12.90;;;6.68;;
75584;SDS011;64162;53.508;10.476;2024-01-30T16:47:28;13.15;;;6.72;;